createdAt,value
2019-04-16T00:02:00.407Z,100221.41
2019-04-16T00:04:46.789Z,100216.05
2019-04-16T00:07:33.223Z,100221.43
2019-04-16T00:10:19.911Z,100221.43
2019-04-16T00:12:54.544Z,100223.13
2019-04-16T00:15:22.346Z,100205.45
2019-04-16T00:17:49.996Z,100205.45
2019-04-16T00:20:37.966Z,100196.47
2019-04-16T00:25:44.721Z,100191.84
2019-04-16T00:28:31.418Z,100191.84
2019-04-16T00:31:17.929Z,100194.40
2019-04-16T00:34:04.367Z,100194.40
2019-04-16T00:36:50.752Z,100191.92
2019-04-16T00:39:37.454Z,100185.70
2019-04-16T00:42:23.801Z,100187.77
2019-04-16T00:44:51.517Z,100187.77
2019-04-16T00:47:19.177Z,100185.78
2019-04-16T00:50:05.598Z,100184.45
2019-04-16T00:52:51.995Z,100182.45
2019-04-16T00:58:32.931Z,100179.06
2019-04-16T01:03:34.235Z,100169.04
2019-04-16T01:06:06.639Z,100174.04
2019-04-16T01:08:31.220Z,100174.70
2019-04-16T01:10:58.851Z,100169.03
2019-04-16T01:13:45.178Z,100169.03
2019-04-16T01:16:32.923Z,100172.72
2019-04-16T01:19:19.560Z,100172.72
2019-04-16T01:21:47.278Z,100163.34
2019-04-16T01:24:33.601Z,100159.22
2019-04-16T01:27:20.030Z,100158.27
2019-04-16T01:30:06.833Z,100151.28
2019-04-16T01:32:53.171Z,100154.77
2019-04-16T01:35:39.586Z,100152.32
2019-04-16T01:41:43.227Z,100148.61
2019-04-16T01:44:19.447Z,100139.45
2019-04-16T01:47:05.881Z,100139.08
2019-04-16T01:52:40.302Z,100142.19
2019-04-16T01:58:13.116Z,100133.50
2019-04-16T02:00:40.756Z,100133.50
2019-04-16T02:03:29.141Z,100126.02
2019-04-16T02:06:15.479Z,100125.55
2019-04-16T02:09:03.266Z,100115.63
2019-04-16T02:11:33.260Z,100115.63
2019-04-16T02:14:01.029Z,100114.76
2019-04-16T02:16:47.705Z,100110.04
2019-04-16T02:19:34.038Z,100107.20
2019-04-16T02:22:20.673Z,100108.64
2019-04-16T02:24:48.670Z,100108.64
2019-04-16T02:27:36.666Z,100099.66
2019-04-16T02:30:23.116Z,100104.47
2019-04-16T02:32:50.724Z,100104.55
2019-04-16T02:35:38.798Z,100106.83
2019-04-16T02:38:11.034Z,100106.83
2019-04-16T02:40:35.821Z,100099.84
2019-04-16T02:43:07.456Z,100095.50
2019-04-16T02:45:58.344Z,100097.02
2019-04-16T02:51:31.276Z,100095.03
2019-04-16T02:56:57.993Z,100088.88
2019-04-16T03:02:23.088Z,100092.38
2019-04-16T03:08:05.008Z,100084.11
2019-04-16T03:10:32.533Z,100089.77
2019-04-16T03:13:23.032Z,100089.16
2019-04-16T03:19:12.018Z,100081.73
2019-04-16T03:24:47.455Z,100083.98
2019-04-16T03:27:33.908Z,100083.11
2019-04-16T03:30:03.364Z,100083.11
2019-04-16T03:32:50.186Z,100078.73
2019-04-16T03:35:17.965Z,100078.73
2019-04-16T03:38:05.402Z,100079.45
2019-04-16T03:40:34.075Z,100073.50
2019-04-16T03:45:40.469Z,100070.14
2019-04-16T03:48:26.239Z,100071.08
2019-04-16T03:51:14.922Z,100069.38
2019-04-16T03:54:04.993Z,100065.50
2019-04-16T03:56:52.589Z,100064.74
2019-04-16T03:59:40.024Z,100063.12
2019-04-16T04:02:08.422Z,100066.70
2019-04-16T04:04:57.567Z,100060.28
2019-04-16T04:07:24.324Z,100060.28
2019-04-16T04:09:55.199Z,100062.13
2019-04-16T04:12:42.585Z,100055.91
2019-04-16T04:15:11.368Z,100054.44
2019-04-16T04:20:44.266Z,100058.75
2019-04-16T04:23:45.316Z,100057.28
2019-04-16T04:26:00.592Z,100057.08
2019-04-16T04:28:48.657Z,100055.53
2019-04-16T04:34:21.524Z,100053.53
2019-04-16T04:36:49.298Z,100055.71
2019-04-16T04:39:35.717Z,100055.71
2019-04-16T04:42:03.354Z,100057.41
2019-04-16T04:44:33.607Z,100058.34
2019-04-16T04:47:20.146Z,100062.05
2019-04-16T04:52:40.194Z,100060.45
2019-04-16T04:55:07.959Z,100064.35
2019-04-16T04:57:54.341Z,100062.70
2019-04-16T05:00:22.252Z,100062.70
2019-04-16T05:03:08.733Z,100062.86
2019-04-16T05:05:56.057Z,100067.50
2019-04-16T05:08:43.158Z,100064.37
2019-04-16T05:11:29.523Z,100068.09
2019-04-16T05:14:15.974Z,100068.96
2019-04-16T05:17:03.535Z,100070.02
2019-04-16T05:19:52.373Z,100065.90
2019-04-16T05:22:38.758Z,100073.06
2019-04-16T05:25:25.179Z,100066.56
2019-04-16T05:30:25.387Z,100071.53
2019-04-16T05:32:53.363Z,100074.13
2019-04-16T05:35:21.127Z,100074.13
2019-04-16T05:37:51.490Z,100071.20
2019-04-16T05:40:36.990Z,100078.02
2019-04-16T05:43:04.699Z,100074.45
2019-04-16T05:45:34.468Z,100074.45
2019-04-16T05:48:21.867Z,100067.51
2019-04-16T05:50:49.789Z,100067.51
2019-04-16T05:53:37.342Z,100064.89
2019-04-16T05:56:24.991Z,100064.89
2019-04-16T05:59:12.290Z,100076.22
2019-04-16T06:02:11.177Z,100072.25
2019-04-16T06:04:28.788Z,100069.02
2019-04-16T06:06:56.543Z,100061.06
2019-04-16T06:09:24.237Z,100069.83
2019-04-16T06:12:10.623Z,100065.39
2019-04-16T06:14:54.010Z,100064.97
2019-04-16T06:17:39.997Z,100066.42
2019-04-16T06:20:29.433Z,100066.42
2019-04-16T06:23:15.889Z,100058.52
2019-04-16T06:26:02.285Z,100063.79
2019-04-16T06:29:00.950Z,100063.79
2019-04-16T06:31:51.036Z,100061.80
2019-04-16T06:34:25.523Z,100058.50
2019-04-16T06:40:32.593Z,100066.87
2019-04-16T06:43:05.156Z,100062.81
2019-04-16T06:45:51.606Z,100066.11
2019-04-16T06:48:38.014Z,100066.11
2019-04-16T06:51:24.706Z,100069.20
2019-04-16T06:54:11.543Z,100060.68
2019-04-16T06:56:57.148Z,100055.09
2019-04-16T06:59:33.838Z,100053.48
2019-04-16T07:02:32.544Z,100053.48
2019-04-16T07:05:22.223Z,100053.50
2019-04-16T07:08:09.199Z,100051.10
2019-04-16T07:10:44.906Z,100047.75
2019-04-16T07:13:21.468Z,100044.61
2019-04-16T07:15:49.360Z,100044.61
2019-04-16T07:18:20.403Z,100043.52
2019-04-16T07:20:48.594Z,100034.77
2019-04-16T07:23:16.213Z,100036.03
2019-04-16T07:26:03.894Z,100036.03
2019-04-16T07:31:52.301Z,100029.64
2019-04-16T07:34:37.159Z,100035.12
2019-04-16T07:37:24.003Z,100035.12
2019-04-16T07:40:10.656Z,100032.23
2019-04-16T07:42:58.966Z,100032.23
2019-04-16T07:45:41.758Z,100026.02
2019-04-16T07:48:28.497Z,100026.02
2019-04-16T07:51:27.019Z,100018.45
2019-04-16T07:54:06.506Z,100018.45
2019-04-16T07:59:32.358Z,100011.36
2019-04-16T08:02:17.690Z,100011.36
2019-04-16T08:07:43.275Z,100008.39
2019-04-16T08:10:29.683Z,100008.39
2019-04-16T08:16:00.402Z,99991.79
2019-04-16T08:18:28.056Z,99995.18
2019-04-16T08:21:14.479Z,99992.03
2019-04-16T08:24:00.906Z,99985.70
2019-04-16T08:26:47.267Z,99985.70
2019-04-16T08:32:25.922Z,99990.45
2019-04-16T08:34:54.442Z,99986.11
2019-04-16T08:37:53.306Z,99986.11
2019-04-16T08:40:15.229Z,99983.91
2019-04-16T08:43:01.704Z,99980.84
2019-04-16T08:45:29.286Z,99973.77
2019-04-16T08:48:02.365Z,99972.16
2019-04-16T08:50:30.099Z,99971.75
2019-04-16T08:53:00.150Z,99977.41
2019-04-16T08:55:46.611Z,99971.13
2019-04-16T08:58:14.258Z,99978.02
2019-04-16T09:03:35.232Z,99977.97
2019-04-16T09:06:04.322Z,99977.69
2019-04-16T09:08:53.209Z,99977.69
2019-04-16T09:11:38.983Z,99968.32
2019-04-16T09:14:25.899Z,99961.98
2019-04-16T09:17:13.412Z,99967.27
2019-04-16T09:22:49.191Z,99948.92
2019-04-16T09:25:34.349Z,99953.36
2019-04-16T09:28:25.857Z,99949.81
2019-04-16T09:33:58.983Z,99939.95
2019-04-16T09:36:46.598Z,99937.92
2019-04-16T09:44:53.920Z,99928.45
2019-04-16T09:47:23.047Z,99925.84
2019-04-16T09:49:50.757Z,99925.84
2019-04-16T09:52:37.213Z,99926.83
2019-04-16T09:55:23.613Z,99924.66
2019-04-16T09:57:54.301Z,99913.57
2019-04-16T10:00:28.869Z,99917.86
2019-04-16T10:02:58.500Z,99913.91
2019-04-16T10:05:29.682Z,99905.00
2019-04-16T10:07:57.041Z,99909.59
2019-04-16T10:10:28.299Z,99905.90
2019-04-16T10:12:54.432Z,99897.06
2019-04-16T10:15:22.073Z,99897.06
2019-04-16T10:17:49.818Z,99902.22
2019-04-16T10:20:17.867Z,99898.05
2019-04-16T10:22:45.484Z,99887.06
2019-04-16T10:25:22.271Z,99887.06
2019-04-16T10:27:58.509Z,99894.36
2019-04-16T10:30:32.726Z,99895.73
2019-04-16T10:33:00.624Z,99883.12
2019-04-16T10:35:28.681Z,99883.12
2019-04-16T10:37:56.280Z,99883.71
2019-04-16T10:40:44.549Z,99886.59
2019-04-16T10:43:44.790Z,99878.48
2019-04-16T10:46:35.229Z,99875.28
2019-04-16T10:49:28.336Z,99871.27
2019-04-16T10:52:24.806Z,99871.27
2019-04-16T10:55:00.550Z,99871.05
2019-04-16T10:57:46.423Z,99864.39
2019-04-16T11:00:30.654Z,99870.58
2019-04-16T11:03:06.001Z,99863.11
2019-04-16T11:06:02.326Z,99879.91
2019-04-16T11:08:30.282Z,99873.95
2019-04-16T11:11:00.212Z,99868.91
2019-04-16T11:13:33.688Z,99858.76
2019-04-16T11:16:07.826Z,99865.59
2019-04-16T11:18:35.482Z,99866.69
2019-04-16T11:21:03.750Z,99864.56
2019-04-16T11:23:31.770Z,99857.62
2019-04-16T11:25:59.331Z,99857.02
2019-04-16T11:28:26.993Z,99860.41
2019-04-16T11:30:56.851Z,99848.52
2019-04-16T11:33:27.399Z,99846.16
2019-04-16T11:35:59.832Z,99838.59
2019-04-16T11:38:27.715Z,99846.61
2019-04-16T11:40:55.349Z,99847.53
2019-04-16T11:43:23.086Z,99842.84
2019-04-16T11:45:51.102Z,99840.97
2019-04-16T11:48:18.705Z,99838.50
2019-04-16T11:50:46.458Z,99839.36
2019-04-16T11:53:14.562Z,99835.56
2019-04-16T11:55:42.273Z,99840.55
2019-04-16T11:58:24.514Z,99838.13
2019-04-16T12:00:56.653Z,99833.58
2019-04-16T12:03:48.912Z,99829.67
2019-04-16T12:06:41.219Z,99828.14
2019-04-16T12:09:24.705Z,99835.79
2019-04-16T12:11:59.088Z,99831.36
2019-04-16T12:14:42.036Z,99834.80
2019-04-16T12:17:31.369Z,99834.80
2019-04-16T12:20:19.407Z,99833.25
2019-04-16T12:23:18.841Z,99834.02
2019-04-16T12:26:09.815Z,99842.07
2019-04-16T12:28:55.349Z,99828.50
2019-04-16T12:32:03.568Z,99839.36
2019-04-16T12:34:46.403Z,99837.30
2019-04-16T12:37:46.595Z,99835.16
2019-04-16T12:40:24.412Z,99828.25
2019-04-16T12:43:09.096Z,99836.55
2019-04-16T12:45:43.780Z,99833.36
2019-04-16T12:48:19.269Z,99832.73
2019-04-16T12:51:02.246Z,99832.45
2019-04-16T12:53:46.262Z,99830.84
2019-04-16T12:56:46.855Z,99830.84
2019-04-16T12:59:24.459Z,99832.04
2019-04-16T13:02:02.695Z,99825.56
2019-04-16T13:04:49.495Z,99824.47
2019-04-16T13:07:34.401Z,99817.80
2019-04-16T13:10:38.563Z,99817.75
2019-04-16T13:13:26.600Z,99817.73
2019-04-16T13:16:18.824Z,99811.64
2019-04-16T13:19:06.576Z,99818.77
2019-04-16T13:21:39.964Z,99818.77
2019-04-16T13:24:35.966Z,99813.52
2019-04-16T13:27:28.238Z,99805.86
2019-04-16T13:30:01.241Z,99809.30
2019-04-16T13:32:27.777Z,99809.30
2019-04-16T13:34:57.992Z,99815.30
2019-04-16T13:37:24.342Z,99809.11
2019-04-16T13:40:02.401Z,99813.19
2019-04-16T13:42:32.931Z,99813.08
2019-04-16T13:45:16.652Z,99806.03
2019-04-16T13:47:46.140Z,99803.22
2019-04-16T13:50:41.946Z,99790.94
2019-04-16T13:53:29.079Z,99790.94
2019-04-16T13:56:18.512Z,99805.43
2019-04-16T13:59:09.375Z,99809.11
2019-04-16T14:01:46.061Z,99806.84
2019-04-16T14:04:14.647Z,99817.11
2019-04-16T14:06:45.998Z,99814.62
2019-04-16T14:09:12.344Z,99809.13
2019-04-16T14:11:40.035Z,99809.13
2019-04-16T14:14:08.485Z,99815.31
2019-04-16T14:16:36.569Z,99816.30
2019-04-16T14:19:06.771Z,99815.39
2019-04-16T14:21:41.759Z,99813.18
2019-04-16T14:24:11.903Z,99817.27
2019-04-16T14:26:43.416Z,99817.27
2019-04-16T14:29:11.143Z,99819.92
2019-04-16T14:31:39.080Z,99817.05
2019-04-16T14:34:16.278Z,99805.23
2019-04-16T14:36:43.936Z,99820.01
2019-04-16T14:39:22.249Z,99815.12
2019-04-16T14:41:56.015Z,99823.73
2019-04-16T14:44:20.142Z,99817.44
2019-04-16T14:46:49.048Z,99818.59
2019-04-16T14:49:18.362Z,99818.59
2019-04-16T14:51:46.383Z,99811.13
2019-04-16T14:54:25.355Z,99811.42
2019-04-16T14:56:58.417Z,99811.66
2019-04-16T14:59:47.635Z,99810.19
2019-04-16T15:02:30.361Z,99804.68
2019-04-16T15:05:15.566Z,99804.41
2019-04-16T15:07:45.600Z,99803.45
2019-04-16T15:10:47.225Z,99808.98
2019-04-16T15:13:49.770Z,99809.90
2019-04-16T15:16:38.934Z,99809.90
2019-04-16T15:19:24.050Z,99808.50
2019-04-16T15:22:19.606Z,99813.95
2019-04-16T15:25:09.130Z,99811.36
2019-04-16T15:27:55.942Z,99810.41
2019-04-16T15:30:51.519Z,99809.32
2019-04-16T15:33:23.092Z,99809.32
2019-04-16T15:36:01.795Z,99812.06
2019-04-16T15:38:54.159Z,99822.94
2019-04-16T15:41:30.888Z,99825.09
2019-04-16T15:44:09.891Z,99825.09
2019-04-16T15:47:15.051Z,99828.31
2019-04-16T15:50:13.397Z,99825.83
2019-04-16T15:52:48.122Z,99825.83
2019-04-16T15:55:37.394Z,99830.30
2019-04-16T15:58:32.517Z,99831.66
2019-04-16T16:01:18.031Z,99839.23
2019-04-16T16:04:09.621Z,99837.86
2019-04-16T16:07:02.135Z,99838.98
2019-04-16T16:09:41.055Z,99841.98
2019-04-16T16:12:11.033Z,99846.62
2019-04-16T16:14:39.176Z,99845.53
2019-04-16T16:17:07.182Z,99848.80
2019-04-16T16:19:37.694Z,99848.80
2019-04-16T16:22:11.916Z,99855.98
2019-04-16T16:24:41.945Z,99854.72
2019-04-16T16:27:06.045Z,99854.27
2019-04-16T16:29:33.820Z,99856.37
2019-04-16T16:32:06.295Z,99856.37
2019-04-16T16:34:31.396Z,99861.06
2019-04-16T16:37:02.624Z,99860.22
2019-04-16T16:39:34.669Z,99860.22
2019-04-16T16:42:02.344Z,99857.42
2019-04-16T16:44:30.211Z,99867.27
2019-04-16T16:47:16.707Z,99867.27
2019-04-16T16:49:44.785Z,99869.31
2019-04-16T16:52:30.984Z,99874.73
2019-04-16T16:55:00.878Z,99874.73
2019-04-16T16:57:42.743Z,99873.25
2019-04-16T17:00:35.723Z,99876.36
2019-04-16T17:03:13.525Z,99876.36
2019-04-16T17:05:42.149Z,99874.55
2019-04-16T17:08:09.869Z,99876.11
2019-04-16T17:10:37.795Z,99887.66
2019-04-16T17:13:05.695Z,99893.25
2019-04-16T17:15:33.401Z,99893.25
2019-04-16T17:18:01.149Z,99895.50
2019-04-16T17:20:30.042Z,99895.50
2019-04-16T17:22:57.642Z,99898.39
2019-04-16T17:25:36.096Z,99901.45
2019-04-16T17:27:57.545Z,99902.67
2019-04-16T17:30:26.578Z,99908.75
2019-04-16T17:32:54.539Z,99912.47
2019-04-16T17:35:22.487Z,99908.61
2019-04-16T17:37:50.138Z,99913.50
2019-04-16T17:40:51.138Z,99916.70
2019-04-16T17:43:33.431Z,99916.70
2019-04-16T17:46:24.532Z,99925.16
2019-04-16T17:49:11.625Z,99927.69
2019-04-16T17:51:58.313Z,99930.22
2019-04-16T17:54:46.354Z,99941.84
2019-04-16T17:57:45.699Z,99941.84
2019-04-16T18:00:38.421Z,99943.16
2019-04-16T18:03:27.906Z,99951.56
2019-04-16T18:06:17.221Z,99951.56
2019-04-16T18:09:12.720Z,99952.38
2019-04-16T18:11:52.823Z,99964.70
2019-04-16T18:14:48.494Z,99966.99
2019-04-16T18:17:46.419Z,99966.99
2019-04-16T18:20:24.295Z,99967.25
2019-04-16T18:23:19.097Z,99974.28
2019-04-16T18:26:03.413Z,99974.28
2019-04-16T18:28:37.853Z,99983.59
2019-04-16T18:31:14.539Z,99983.59
2019-04-16T18:33:56.079Z,99992.91
2019-04-16T18:36:45.624Z,99993.31
2019-04-16T18:39:37.513Z,99999.03
2019-04-16T18:42:07.734Z,100000.62
2019-04-16T18:44:56.116Z,100005.02
2019-04-16T18:47:42.259Z,100019.31
2019-04-16T18:50:35.669Z,100019.31
2019-04-16T18:56:00.190Z,100046.11
2019-04-16T18:58:27.896Z,100052.43
2019-04-16T19:01:24.662Z,100062.98
2019-04-16T19:04:21.406Z,100064.53
2019-04-16T19:07:09.647Z,100068.69
2019-04-16T19:12:18.089Z,100078.78
2019-04-16T19:17:55.166Z,100085.22
2019-04-16T19:29:14.743Z,100109.96
2019-04-16T19:31:57.559Z,100106.95
2019-04-16T19:39:47.925Z,100119.81
2019-04-16T19:42:25.766Z,100124.97
2019-04-16T19:44:53.906Z,100127.95
2019-04-16T19:47:40.718Z,100138.19
2019-04-16T19:50:10.343Z,100138.19
2019-04-16T19:52:38.439Z,100133.17
2019-04-16T19:55:06.312Z,100135.00
2019-04-16T19:57:34.237Z,100134.17
2019-04-16T20:00:04.210Z,100138.54
2019-04-16T20:02:51.548Z,100137.89
2019-04-16T20:05:38.313Z,100137.89
2019-04-16T20:08:39.788Z,100146.58
2019-04-16T20:11:08.110Z,100144.11
2019-04-16T20:13:54.543Z,100152.44
2019-04-16T20:16:22.275Z,100152.44
2019-04-16T20:21:38.311Z,100159.98
2019-04-16T20:24:27.193Z,100159.16
2019-04-16T20:26:55.073Z,100168.86
2019-04-16T20:29:58.390Z,100173.49
2019-04-16T20:32:34.299Z,100176.84
2019-04-16T20:35:19.210Z,100176.84
2019-04-16T20:37:53.094Z,100176.23
2019-04-16T20:40:38.389Z,100183.74
2019-04-16T20:43:06.152Z,100193.20
2019-04-16T20:45:55.141Z,100194.48
2019-04-16T20:48:44.710Z,100200.28
2019-04-16T20:57:25.327Z,100207.77
2019-04-16T21:02:43.994Z,100214.45
2019-04-16T21:08:24.409Z,100226.72
2019-04-16T21:10:51.008Z,100223.45
2019-04-16T21:13:37.409Z,100217.28
2019-04-16T21:19:28.269Z,100214.64
2019-04-16T21:21:45.227Z,100214.64
2019-04-16T21:24:31.677Z,100218.25
2019-04-16T21:26:59.312Z,100217.90
2019-04-16T21:29:45.762Z,100222.03
2019-04-16T21:32:32.154Z,100220.69
2019-04-16T21:35:18.615Z,100221.31
2019-04-16T21:38:19.010Z,100224.58
2019-04-16T21:40:56.424Z,100224.58
2019-04-16T21:43:28.605Z,100232.30
2019-04-16T21:46:20.204Z,100232.30
2019-04-16T21:48:46.993Z,100237.16
2019-04-16T21:51:33.455Z,100231.69
2019-04-16T21:54:01.424Z,100233.67
2019-04-16T21:57:01.751Z,100233.67
2019-04-16T21:59:21.854Z,100234.66
2019-04-16T22:01:52.355Z,100239.02
2019-04-16T22:04:22.076Z,100235.86
2019-04-16T22:07:10.182Z,100232.83
2019-04-16T22:09:52.559Z,100232.83
2019-04-16T22:12:26.262Z,100231.73
2019-04-16T22:15:12.715Z,100238.41
2019-04-16T22:17:59.149Z,100238.41
2019-04-16T22:23:00.743Z,100239.48
2019-04-16T22:25:29.817Z,100241.92
2019-04-16T22:27:57.569Z,100241.92
2019-04-16T22:30:43.933Z,100247.72
2019-04-16T22:33:30.390Z,100253.32
2019-04-16T22:35:58.156Z,100253.32
2019-04-16T22:38:44.623Z,100250.60
2019-04-16T22:41:31.014Z,100254.25
2019-04-16T22:44:17.744Z,100254.25
2019-04-16T22:47:04.474Z,100249.65
2019-04-16T22:49:56.721Z,100244.94
2019-04-16T22:52:21.910Z,100244.94
2019-04-16T22:54:52.345Z,100248.08
2019-04-16T22:57:37.664Z,100246.98
2019-04-16T23:02:55.663Z,100250.03
2019-04-16T23:05:23.427Z,100250.03
2019-04-16T23:07:51.199Z,100252.08
2019-04-16T23:10:37.927Z,100259.59
2019-04-16T23:13:24.377Z,100254.62
2019-04-16T23:16:11.150Z,100254.62
2019-04-16T23:18:57.540Z,100268.66
2019-04-16T23:21:43.993Z,100268.66
2019-04-16T23:43:53.497Z,100270.18
2019-04-16T23:46:53.191Z,100270.18
2019-04-16T23:52:01.586Z,100265.67
2019-04-16T23:54:46.487Z,100265.57
2019-04-16T23:57:35.854Z,100265.57
